createdAt,value
2022-11-15T00:00:54.954Z,80.18
2022-11-15T00:03:25.242Z,80.70
2022-11-15T00:05:52.052Z,80.46
2022-11-15T00:08:18.776Z,80.23
2022-11-15T00:10:55.811Z,80.21
2022-11-15T00:13:22.508Z,80.39
2022-11-15T00:15:49.202Z,80.56
2022-11-15T00:18:16.316Z,80.23
2022-11-15T00:20:43.824Z,79.92
2022-11-15T00:23:10.833Z,80.24
2022-11-15T00:25:37.553Z,80.44
2022-11-15T00:28:04.184Z,80.41
2022-11-15T00:30:30.952Z,80.29
2022-11-15T00:32:57.706Z,79.87
2022-11-15T00:35:24.226Z,80.32
2022-11-15T00:37:50.759Z,80.37
2022-11-15T00:40:17.329Z,80.33
2022-11-15T00:42:43.850Z,80.49
2022-11-15T00:45:10.944Z,80.21
2022-11-15T00:47:37.479Z,80.74
2022-11-15T00:50:04.865Z,80.32
2022-11-15T00:52:31.433Z,80.28
2022-11-15T00:54:57.964Z,80.54
2022-11-15T00:57:24.490Z,80.44
2022-11-15T00:59:51.033Z,80.49
2022-11-15T01:02:17.598Z,80.21
2022-11-15T01:04:44.217Z,80.41
2022-11-15T01:07:10.866Z,80.25
2022-11-15T01:09:37.473Z,80.63
2022-11-15T01:12:04.273Z,80.60
2022-11-15T01:14:30.835Z,80.69
2022-11-15T01:16:57.397Z,80.37
2022-11-15T01:19:25.405Z,80.66
2022-11-15T01:21:54.178Z,80.96
2022-11-15T01:24:22.353Z,80.68
2022-11-15T01:26:49.935Z,80.48
2022-11-15T01:29:18.173Z,80.47
2022-11-15T01:31:46.507Z,80.57
2022-11-15T01:34:17.208Z,80.39
2022-11-15T01:36:45.550Z,80.60
2022-11-15T01:39:13.748Z,81.00
2022-11-15T01:41:41.995Z,81.09
2022-11-15T01:47:26.867Z,80.47
2022-11-15T01:50:02.302Z,80.93
2022-11-15T01:52:32.378Z,80.26
2022-11-15T01:55:21.061Z,80.77
2022-11-15T01:57:51.513Z,81.07
2022-11-15T02:00:18.414Z,80.50
2022-11-15T02:02:45.147Z,80.57
2022-11-15T02:05:12.410Z,81.08
2022-11-15T02:07:39.229Z,81.23
2022-11-15T02:10:12.513Z,80.78
2022-11-15T02:12:39.350Z,80.52
2022-11-15T02:15:07.786Z,81.68
2022-11-15T02:18:00.235Z,81.66
2022-11-15T02:29:09.833Z,81.51
2022-11-15T02:34:52.987Z,81.02
2022-11-15T02:43:18.902Z,81.02
2022-11-15T02:45:52.705Z,81.69
2022-11-15T02:48:22.470Z,81.80
2022-11-15T02:50:49.597Z,81.42
2022-11-15T02:53:16.552Z,81.45
2022-11-15T02:55:47.506Z,81.51
2022-11-15T03:06:54.004Z,82.00
2022-11-15T03:12:05.117Z,81.92
2022-11-15T03:14:37.346Z,82.08
2022-11-15T03:19:58.487Z,82.63
2022-11-15T03:22:28.956Z,81.99
2022-11-15T03:24:59.908Z,82.26
2022-11-15T03:27:33.055Z,82.67
2022-11-15T03:30:03.865Z,82.75
2022-11-15T03:32:35.337Z,82.22
2022-11-15T03:37:53.377Z,82.33
2022-11-15T03:40:26.741Z,82.32
2022-11-15T03:43:04.455Z,82.14
2022-11-15T03:45:43.815Z,82.78
2022-11-15T03:48:15.683Z,82.04
2022-11-15T03:50:44.489Z,82.71
2022-11-15T03:53:11.656Z,82.33
2022-11-15T03:55:38.205Z,82.21
2022-11-15T03:58:04.935Z,82.43
2022-11-15T04:00:31.487Z,82.30
2022-11-15T04:02:58.097Z,81.72
2022-11-15T04:05:24.869Z,82.17
2022-11-15T04:07:51.747Z,82.95
2022-11-15T04:10:18.710Z,82.50
2022-11-15T04:12:48.575Z,82.43
2022-11-15T04:15:19.920Z,82.57
2022-11-15T04:20:45.046Z,82.55
2022-11-15T04:23:34.332Z,83.40
2022-11-15T04:26:04.627Z,83.22
2022-11-15T04:28:31.460Z,82.80
2022-11-15T04:30:58.297Z,83.01
2022-11-15T04:33:24.843Z,83.37
2022-11-15T04:36:11.371Z,83.26
2022-11-15T04:38:37.943Z,83.19
2022-11-15T04:41:04.725Z,83.22
2022-11-15T04:43:31.820Z,83.41
2022-11-15T04:45:58.609Z,82.99
2022-11-15T04:48:25.114Z,83.33
2022-11-15T04:50:51.669Z,83.35
2022-11-15T04:53:18.181Z,83.32
2022-11-15T04:55:47.217Z,83.21
2022-11-15T04:58:13.870Z,82.90
2022-11-15T05:00:41.027Z,83.38
2022-11-15T05:03:27.611Z,83.66
2022-11-15T05:05:54.113Z,83.75
2022-11-15T05:08:20.715Z,83.19
2022-11-15T05:10:48.604Z,83.63
2022-11-15T05:13:15.147Z,83.75
2022-11-15T05:15:41.774Z,84.00
2022-11-15T05:18:08.312Z,83.86
2022-11-15T05:20:34.856Z,84.14
2022-11-15T05:23:01.437Z,83.96
2022-11-15T05:25:28.152Z,83.80
2022-11-15T05:27:54.810Z,83.92
2022-11-15T05:30:21.324Z,84.45
2022-11-15T05:32:48.787Z,84.26
2022-11-15T05:35:28.210Z,84.44
2022-11-15T05:37:54.766Z,84.53
2022-11-15T05:40:21.614Z,84.45
2022-11-15T05:42:48.974Z,84.64
2022-11-15T05:45:16.361Z,84.61
2022-11-15T05:47:43.597Z,84.65
2022-11-15T05:50:15.437Z,85.46
2022-11-15T05:52:42.689Z,85.20
2022-11-15T05:55:10.129Z,84.81
2022-11-15T05:57:37.083Z,84.73
2022-11-15T06:00:05.269Z,85.02
2022-11-15T06:02:31.971Z,85.37
2022-11-15T06:04:58.561Z,85.63
2022-11-15T06:07:25.106Z,85.71
2022-11-15T06:09:51.691Z,84.96
2022-11-15T06:12:18.242Z,85.68
2022-11-15T06:14:44.769Z,85.98
2022-11-15T06:17:11.635Z,86.13
2022-11-15T06:19:38.214Z,86.60
2022-11-15T06:22:04.825Z,86.74
2022-11-15T06:24:31.415Z,86.72
2022-11-15T06:26:58.590Z,86.41
2022-11-15T06:29:25.129Z,87.13
2022-11-15T06:31:51.816Z,87.05
2022-11-15T06:34:18.401Z,87.05
2022-11-15T06:36:44.918Z,87.05
2022-11-15T06:39:11.564Z,86.81
2022-11-15T06:41:38.096Z,86.72
2022-11-15T06:44:04.694Z,86.62
2022-11-15T06:46:31.309Z,87.71
2022-11-15T06:48:57.904Z,88.00
2022-11-15T06:51:24.488Z,88.08
2022-11-15T06:53:51.027Z,87.88
2022-11-15T06:56:17.648Z,87.43
2022-11-15T06:58:44.179Z,87.61
2022-11-15T07:01:12.969Z,88.16
2022-11-15T07:03:41.593Z,88.09
2022-11-15T07:06:09.933Z,88.03
2022-11-15T07:08:37.035Z,88.45
2022-11-15T07:11:06.434Z,88.27
2022-11-15T07:13:35.262Z,88.34
2022-11-15T07:16:05.422Z,88.51
2022-11-15T07:18:32.066Z,88.58
2022-11-15T07:21:03.125Z,88.12
2022-11-15T07:23:30.165Z,88.74
2022-11-15T07:26:00.525Z,88.18
2022-11-15T07:28:27.582Z,88.43
2022-11-15T07:30:54.547Z,88.46
2022-11-15T07:33:21.713Z,88.91
2022-11-15T07:35:49.437Z,88.64
2022-11-15T07:38:16.988Z,88.21
2022-11-15T07:40:43.547Z,88.88
2022-11-15T07:43:10.277Z,88.73
2022-11-15T07:45:42.945Z,88.91
2022-11-15T07:48:09.632Z,88.99
2022-11-15T07:50:36.193Z,88.43
2022-11-15T07:53:02.801Z,88.58
2022-11-15T07:55:30.721Z,88.74
2022-11-15T07:58:06.770Z,88.38
2022-11-15T08:00:34.056Z,88.91
2022-11-15T08:03:11.069Z,88.08
2022-11-15T08:08:07.094Z,88.40
2022-11-15T08:10:40.251Z,88.35
2022-11-15T08:13:09.430Z,88.59
2022-11-15T08:15:37.590Z,88.90
2022-11-15T08:18:06.944Z,88.82
2022-11-15T08:20:33.567Z,88.47
2022-11-15T08:23:01.697Z,88.74
2022-11-15T08:25:30.198Z,88.58
2022-11-15T08:27:58.738Z,88.84
2022-11-15T08:30:25.829Z,88.53
2022-11-15T08:32:54.068Z,88.60
2022-11-15T08:35:24.926Z,88.96
2022-11-15T08:37:55.295Z,88.39
2022-11-15T08:40:21.907Z,88.62
2022-11-15T08:42:48.505Z,88.83
2022-11-15T08:45:15.621Z,88.85
2022-11-15T08:47:42.299Z,88.41
2022-11-15T08:50:09.361Z,89.30
2022-11-15T08:52:35.953Z,89.34
2022-11-15T08:55:02.548Z,89.12
2022-11-15T08:57:31.569Z,88.61
2022-11-15T08:59:58.487Z,88.45
2022-11-15T09:02:26.121Z,88.27
2022-11-15T09:04:52.783Z,89.14
2022-11-15T09:07:19.421Z,89.33
2022-11-15T09:09:46.107Z,88.76
2022-11-15T09:12:12.814Z,88.68
2022-11-15T09:14:39.646Z,88.30
2022-11-15T09:17:09.593Z,88.46
2022-11-15T09:19:36.230Z,88.56
2022-11-15T09:22:02.782Z,88.20
2022-11-15T09:24:29.324Z,88.40
2022-11-15T09:26:55.910Z,88.25
2022-11-15T09:29:22.481Z,88.67
2022-11-15T09:31:49.069Z,88.32
2022-11-15T09:34:15.657Z,88.49
2022-11-15T09:36:42.266Z,89.28
2022-11-15T09:39:08.910Z,88.67
2022-11-15T09:49:58.119Z,88.45
2022-11-15T09:52:25.655Z,89.45
2022-11-15T09:54:55.541Z,88.40
2022-11-15T10:05:23.849Z,89.52
2022-11-15T10:08:06.673Z,88.75
2022-11-15T10:13:21.699Z,89.39
2022-11-15T10:15:49.475Z,89.04
2022-11-15T10:20:56.962Z,89.17
2022-11-15T10:23:24.296Z,89.63
2022-11-15T10:25:55.842Z,88.83
2022-11-15T10:31:01.957Z,87.88
2022-11-15T10:33:37.659Z,89.01
2022-11-15T10:36:24.899Z,89.04
2022-11-15T10:46:47.521Z,88.87
2022-11-15T10:51:57.871Z,89.54
2022-11-15T10:57:07.183Z,88.35
2022-11-15T10:59:39.141Z,89.03
2022-11-15T11:02:35.600Z,89.02
2022-11-15T11:05:02.639Z,89.73
2022-11-15T11:07:33.514Z,88.10
2022-11-15T11:12:39.542Z,88.76
2022-11-15T11:15:14.087Z,88.77
2022-11-15T11:20:43.088Z,88.37
2022-11-15T11:28:55.595Z,88.98
2022-11-15T11:42:59.042Z,88.96
2022-11-15T11:48:15.004Z,88.65
2022-11-15T11:50:45.636Z,89.49
2022-11-15T11:55:54.540Z,89.32
2022-11-15T11:58:44.131Z,88.76
2022-11-15T12:12:30.852Z,89.09
2022-11-15T12:17:34.780Z,88.76
2022-11-15T12:20:09.180Z,88.66
2022-11-15T12:22:50.707Z,88.27
2022-11-15T12:25:23.711Z,89.40
2022-11-15T12:27:57.333Z,89.48
2022-11-15T12:30:26.979Z,88.63
2022-11-15T12:33:02.424Z,88.94
2022-11-15T12:38:11.494Z,88.58
2022-11-15T12:40:59.371Z,88.73
2022-11-15T12:43:46.791Z,89.09
2022-11-15T13:02:50.422Z,86.27
2022-11-15T13:07:58.894Z,86.92
2022-11-15T13:13:09.602Z,86.47
2022-11-15T13:15:57.626Z,87.09
2022-11-15T13:21:23.529Z,86.19
2022-11-15T13:23:55.669Z,87.22
2022-11-15T13:26:22.801Z,86.67
2022-11-15T13:28:53.263Z,86.88
2022-11-15T13:34:13.623Z,85.81
2022-11-15T13:36:51.327Z,86.42
2022-11-15T13:39:37.534Z,86.33
2022-11-15T13:42:04.309Z,85.68
2022-11-15T13:44:33.734Z,86.50
2022-11-15T13:47:05.455Z,85.44
2022-11-15T13:49:34.600Z,85.34
2022-11-15T13:52:03.727Z,84.62
2022-11-15T13:57:26.361Z,83.99
2022-11-15T13:59:55.864Z,84.21
2022-11-15T14:02:27.828Z,83.69
2022-11-15T14:04:58.053Z,84.72
2022-11-15T14:07:28.729Z,84.40
2022-11-15T14:09:56.186Z,83.95
2022-11-15T14:15:02.286Z,83.86
2022-11-15T14:20:39.021Z,84.00
2022-11-15T14:23:20.645Z,83.46
2022-11-15T14:25:58.096Z,83.25
2022-11-15T14:31:01.249Z,83.43
2022-11-15T14:36:11.893Z,82.87
2022-11-15T14:38:38.446Z,82.71
2022-11-15T14:41:05.652Z,82.33
2022-11-15T14:43:32.461Z,83.44
2022-11-15T14:45:59.058Z,82.66
2022-11-15T14:48:25.823Z,83.10
2022-11-15T14:50:52.350Z,83.20
2022-11-15T14:53:20.886Z,82.18
2022-11-15T14:55:47.436Z,81.92
2022-11-15T14:58:13.965Z,82.93
2022-11-15T15:00:42.100Z,82.79
2022-11-15T15:03:09.848Z,82.70
2022-11-15T15:05:39.666Z,83.13
2022-11-15T15:08:07.103Z,82.60
2022-11-15T15:10:41.221Z,83.04
2022-11-15T15:15:53.039Z,82.83
2022-11-15T15:18:21.140Z,82.84
2022-11-15T15:20:55.332Z,82.04
2022-11-15T15:23:21.971Z,83.50
2022-11-15T15:25:50.019Z,83.66
2022-11-15T15:28:16.910Z,82.68
2022-11-15T15:30:43.585Z,83.22
2022-11-15T15:33:10.138Z,83.43
2022-11-15T15:35:37.058Z,83.38
2022-11-15T15:38:04.382Z,82.91
2022-11-15T15:40:33.360Z,82.71
2022-11-15T15:43:00.314Z,82.14
2022-11-15T15:45:28.610Z,82.39
2022-11-15T15:47:55.373Z,82.74
2022-11-15T15:50:26.607Z,82.31
2022-11-15T15:52:55.672Z,82.87
2022-11-15T15:55:22.807Z,82.99
2022-11-15T15:57:49.678Z,82.90
2022-11-15T16:00:17.258Z,81.31
2022-11-15T16:02:44.157Z,81.72
2022-11-15T16:05:11.573Z,82.71
2022-11-15T16:07:39.193Z,82.48
2022-11-15T16:10:25.953Z,81.49
2022-11-15T16:12:53.762Z,82.67
2022-11-15T16:15:21.452Z,82.09
2022-11-15T16:17:52.050Z,81.21
2022-11-15T16:23:07.342Z,81.89
2022-11-15T16:25:40.853Z,81.66
2022-11-15T16:28:17.498Z,81.64
2022-11-15T16:30:43.908Z,82.05
2022-11-15T16:33:10.406Z,82.10
2022-11-15T16:35:37.110Z,82.66
2022-11-15T16:38:03.719Z,82.82
2022-11-15T16:40:33.908Z,81.67
2022-11-15T16:43:02.954Z,81.92
2022-11-15T16:45:29.676Z,82.34
2022-11-15T16:47:56.986Z,82.67
2022-11-15T16:50:27.397Z,82.12
2022-11-15T16:52:56.356Z,82.53
2022-11-15T16:55:25.162Z,81.99
2022-11-15T16:57:52.050Z,81.62
2022-11-15T17:00:19.899Z,82.20
2022-11-15T17:02:48.173Z,82.40
2022-11-15T17:05:20.047Z,82.45
2022-11-15T17:07:56.415Z,81.65
2022-11-15T17:10:25.094Z,82.74
2022-11-15T17:12:52.289Z,82.41
2022-11-15T17:15:19.353Z,83.09
2022-11-15T17:17:52.624Z,82.30
2022-11-15T17:20:20.249Z,82.96
2022-11-15T17:22:47.417Z,82.20
2022-11-15T17:25:14.770Z,82.47
2022-11-15T17:27:41.567Z,82.83
2022-11-15T17:30:08.697Z,82.65
2022-11-15T17:32:37.538Z,83.30
2022-11-15T17:35:11.997Z,82.25
2022-11-15T17:37:41.985Z,82.74
2022-11-15T17:40:09.102Z,82.57
2022-11-15T17:42:35.644Z,82.86
2022-11-15T17:45:08.045Z,83.58
2022-11-15T17:47:36.057Z,83.29
2022-11-15T17:50:02.669Z,83.02
2022-11-15T17:52:29.307Z,83.65
2022-11-15T17:54:55.808Z,83.31
2022-11-15T17:57:22.389Z,82.88
2022-11-15T17:59:49.058Z,83.34
2022-11-15T18:02:15.743Z,82.87
2022-11-15T18:04:42.335Z,83.53
2022-11-15T18:07:11.703Z,82.98
2022-11-15T18:09:42.296Z,83.21
2022-11-15T18:12:09.800Z,82.50
2022-11-15T18:14:37.092Z,83.18
2022-11-15T18:17:03.678Z,83.28
2022-11-15T18:19:30.212Z,82.46
2022-11-15T18:21:56.861Z,83.36
2022-11-15T18:27:04.010Z,82.81
2022-11-15T18:29:31.351Z,82.72
2022-11-15T18:31:58.921Z,83.33
2022-11-15T18:34:32.327Z,82.75
2022-11-15T18:37:00.538Z,83.12
2022-11-15T18:39:27.054Z,82.55
2022-11-15T18:41:53.598Z,82.14
2022-11-15T18:44:20.147Z,82.77
2022-11-15T18:46:46.966Z,82.94
2022-11-15T18:49:16.561Z,82.87
2022-11-15T18:51:43.815Z,83.21
2022-11-15T18:54:12.268Z,83.32
2022-11-15T18:56:39.644Z,82.39
2022-11-15T18:59:06.690Z,82.55
2022-11-15T19:01:35.937Z,82.64
2022-11-15T19:04:07.017Z,82.39
2022-11-15T19:06:38.502Z,83.07
2022-11-15T19:09:05.597Z,82.95
2022-11-15T19:11:35.708Z,82.38
2022-11-15T19:14:05.753Z,82.73
2022-11-15T19:16:36.734Z,82.75
2022-11-15T19:19:06.559Z,83.50
2022-11-15T19:21:33.811Z,82.91
2022-11-15T19:24:01.416Z,83.50
2022-11-15T19:26:29.226Z,83.35
2022-11-15T19:28:57.888Z,83.28
2022-11-15T19:31:26.656Z,83.50
2022-11-15T19:33:53.861Z,83.27
2022-11-15T19:36:24.062Z,83.38
2022-11-15T19:38:50.528Z,84.11
2022-11-15T19:41:18.931Z,83.71
2022-11-15T19:43:48.030Z,83.85
2022-11-15T19:46:15.438Z,83.68
2022-11-15T19:48:42.056Z,84.05
2022-11-15T19:51:11.967Z,83.46
2022-11-15T19:53:39.196Z,83.61
2022-11-15T19:56:10.868Z,83.63
2022-11-15T19:58:38.161Z,83.63
2022-11-15T20:03:42.348Z,83.13
2022-11-15T20:06:11.140Z,83.81
2022-11-15T20:08:38.094Z,83.49
2022-11-15T20:11:05.303Z,83.88
2022-11-15T20:13:32.183Z,83.46
2022-11-15T20:15:59.661Z,82.88
2022-11-15T20:18:27.877Z,83.54
2022-11-15T20:20:56.607Z,82.81
2022-11-15T20:23:23.438Z,83.74
2022-11-15T20:25:50.634Z,83.05
2022-11-15T20:28:21.139Z,83.27
2022-11-15T20:30:48.422Z,83.26
2022-11-15T20:33:15.073Z,83.21
2022-11-15T20:35:41.668Z,82.64
2022-11-15T20:38:08.446Z,83.18
2022-11-15T20:40:35.701Z,82.85
2022-11-15T20:43:02.662Z,82.99
2022-11-15T20:45:29.333Z,83.23
2022-11-15T20:47:56.924Z,83.08
2022-11-15T20:50:41.542Z,83.15
2022-11-15T20:53:09.176Z,82.97
2022-11-15T20:55:44.265Z,83.22
2022-11-15T20:58:12.467Z,83.09
2022-11-15T21:00:39.197Z,82.83
2022-11-15T21:03:06.915Z,82.25
2022-11-15T21:05:35.553Z,83.09
2022-11-15T21:08:02.125Z,82.74
2022-11-15T21:10:48.632Z,82.76
2022-11-15T21:13:15.182Z,82.83
2022-11-15T21:15:41.689Z,83.11
2022-11-15T21:18:08.314Z,82.79
2022-11-15T21:20:34.904Z,82.56
2022-11-15T21:23:01.450Z,82.09
2022-11-15T21:25:28.013Z,82.51
2022-11-15T21:27:54.603Z,82.81
2022-11-15T21:30:21.240Z,82.73
2022-11-15T21:32:47.791Z,82.54
2022-11-15T21:35:14.453Z,82.31
2022-11-15T21:37:41.077Z,82.53
2022-11-15T21:40:08.490Z,82.59
2022-11-15T21:42:35.035Z,82.33
2022-11-15T21:45:01.694Z,81.86
2022-11-15T21:47:28.377Z,82.60
2022-11-15T21:49:54.922Z,82.40
2022-11-15T21:52:21.530Z,82.44
2022-11-15T21:54:48.154Z,81.95
2022-11-15T21:57:14.691Z,81.62
2022-11-15T22:00:01.202Z,82.20
2022-11-15T22:02:27.746Z,82.01
2022-11-15T22:04:54.294Z,82.65
2022-11-15T22:07:20.961Z,82.84
2022-11-15T22:09:47.577Z,82.08
2022-11-15T22:12:14.111Z,82.27
2022-11-15T22:14:40.650Z,82.22
2022-11-15T22:17:08.273Z,82.09
2022-11-15T22:19:40.417Z,82.28
2022-11-15T22:22:14.068Z,82.24
2022-11-15T22:24:40.594Z,81.66
2022-11-15T22:27:07.148Z,82.19
2022-11-15T22:29:33.717Z,81.28
2022-11-15T22:32:00.309Z,81.83
2022-11-15T22:34:26.828Z,80.94
2022-11-15T22:37:19.180Z,81.88
2022-11-15T22:39:41.768Z,81.60
2022-11-15T22:42:08.657Z,81.16
2022-11-15T22:44:35.208Z,81.84
2022-11-15T22:47:01.757Z,81.52
2022-11-15T22:49:28.531Z,81.60
2022-11-15T22:51:55.077Z,80.43
2022-11-15T22:54:21.632Z,81.15
2022-11-15T22:56:48.382Z,81.06
2022-11-15T22:59:14.920Z,81.17
2022-11-15T23:01:41.517Z,81.69
2022-11-15T23:04:08.061Z,81.56
2022-11-15T23:06:34.708Z,81.44
2022-11-15T23:09:01.259Z,80.85
2022-11-15T23:11:47.724Z,81.21
2022-11-15T23:14:14.388Z,81.25
2022-11-15T23:16:41.055Z,80.29
2022-11-15T23:19:10.063Z,81.18
2022-11-15T23:22:00.420Z,80.43
2022-11-15T23:24:27.011Z,81.44
2022-11-15T23:26:57.566Z,80.54
2022-11-15T23:29:25.738Z,80.62
2022-11-15T23:32:13.700Z,81.14
2022-11-15T23:34:44.440Z,80.66
2022-11-15T23:37:13.393Z,81.16
2022-11-15T23:39:40.362Z,81.49
2022-11-15T23:42:09.344Z,80.19
2022-11-15T23:44:36.478Z,80.20
2022-11-15T23:47:03.065Z,80.73
2022-11-15T23:49:29.716Z,80.48
2022-11-15T23:51:56.279Z,80.17
2022-11-15T23:54:22.832Z,81.15
2022-11-15T23:56:49.402Z,81.09
2022-11-15T23:59:15.991Z,80.18
